Time;durP1;ratioP1;P1;durP2;ratioP2;P2;SDS_P1;SDS_P2;PMS_P1;PMS_P2;Temp;Humidity;BMP_temperature;BMP_pressure;BME280_temperature;BME280_humidity;BME280_pressure;Samples;Min_cycle;Max_cycle;Signal;HPM_P1;HPM_P2
2024/03/04 00:05:54;;;;;;;56.00;33.40;;;;;;;7.38;81.01;97720.69;433643;1262;98022;-42
2024/03/04 00:16:05;;;;;;;53.80;31.90;;;;;;;7.19;81.16;97723.19;433579;1258;110822;-41
2024/03/04 00:26:12;;;;;;;50.50;28.90;;;;;;;7.12;81.39;97720.05;433463;1261;107601;-40
2024/03/04 00:36:22;;;;;;;56.90;33.10;;;;;;;7.05;81.62;97718.88;433550;1262;99253;-40
2024/03/04 00:46:30;;;;;;;56.80;35.60;;;;;;;6.92;82.10;97720.26;433400;1261;106745;-40
2024/03/04 01:06:43;;;;;;;48.80;29.40;;;;;;;6.60;82.13;97718.31;433569;1261;114320;-41
2024/03/04 01:16:52;;;;;;;50.60;31.10;;;;;;;6.47;82.22;97712.73;433397;1263;107645;-40
2024/03/04 01:27:00;;;;;;;53.20;31.90;;;;;;;6.39;82.47;97705.66;433576;1261;99327;-40
2024/03/04 01:37:05;;;;;;;65.40;37.20;;;;;;;6.29;82.95;97704.61;433537;1261;107336;-40
2024/03/04 01:57:25;;;;;;;50.20;30.90;;;;;;;6.16;83.31;97702.03;433631;1261;110991;-40
2024/03/04 02:07:33;;;;;;;49.80;30.20;;;;;;;6.06;83.58;97701.20;433298;1259;107170;-39
2024/03/04 02:17:40;;;;;;;60.90;36.40;;;;;;;6.03;83.98;97699.04;433379;1261;99403;-41
2024/03/04 02:27:47;;;;;;;63.30;39.10;;;;;;;5.90;83.84;97704.34;434269;1260;106869;-40
2024/03/04 02:48:00;;;;;;;49.80;32.90;;;;;;;5.69;84.23;97702.13;433772;1261;112520;-40
2024/03/04 02:58:08;;;;;;;51.50;31.10;;;;;;;5.64;84.37;97699.60;433659;1262;108309;-40
2024/03/04 03:08:15;;;;;;;62.70;38.50;;;;;;;5.65;84.63;97696.52;433630;1257;99270;-41
2024/03/04 03:18:21;;;;;;;67.80;40.00;;;;;;;5.49;84.78;97693.97;433510;1258;108529;-39
2024/03/04 03:28:29;;;;;;;48.00;31.50;;;;;;;5.40;84.92;97698.27;433716;1273;99372;-40
2024/03/04 03:38:36;;;;;;;53.30;32.80;;;;;;;5.41;85.07;97698.00;433880;1261;111338;-40
2024/03/04 03:48:45;;;;;;;56.20;33.20;;;;;;;5.39;85.02;97702.11;433764;1259;108057;-40
2024/03/04 03:58:52;;;;;;;72.40;41.80;;;;;;;5.24;85.48;97703.13;433731;1258;99208;-40
2024/03/04 04:08:59;;;;;;;77.70;45.00;;;;;;;5.10;85.61;97704.44;432440;1261;1762971;-40
2024/03/04 04:19:06;;;;;;;60.40;36.30;;;;;;;5.05;85.64;97708.84;433662;1264;99253;-40
2024/03/04 04:29:13;;;;;;;50.90;32.50;;;;;;;5.06;85.66;97706.83;433763;1261;111086;-41
2024/03/04 04:39:20;;;;;;;57.90;35.30;;;;;;;5.13;85.81;97705.89;433582;1258;107606;-40
2024/03/04 04:49:27;;;;;;;74.60;43.20;;;;;;;5.11;85.92;97708.70;433681;1257;99252;-40
2024/03/04 04:59:34;;;;;;;82.10;46.60;;;;;;;4.97;86.16;97717.09;433680;1261;109580;-40
2024/03/04 05:09:42;;;;;;;67.80;39.50;;;;;;;4.88;86.16;97720.27;433677;1261;99212;-40
2024/03/04 05:19:49;;;;;;;59.80;36.10;;;;;;;4.77;86.24;97723.20;433457;1261;110889;-40
2024/03/04 05:29:57;;;;;;;60.90;38.80;;;;;;;4.82;86.44;97725.21;433543;1259;107229;-39
2024/03/04 05:50:08;;;;;;;90.40;48.20;;;;;;;4.84;87.02;97729.95;433476;1261;107571;-39
2024/03/04 06:00:16;;;;;;;83.80;47.80;;;;;;;4.88;87.32;97735.55;433697;1260;99236;-39
2024/03/04 06:10:23;;;;;;;75.50;43.50;;;;;;;4.94;87.33;97740.02;433637;1259;111190;-42
2024/03/04 06:30:37;;;;;;;81.00;48.10;;;;;;;5.37;87.92;97750.60;433413;1261;99281;-39
2024/03/04 06:40:44;;;;;;;67.20;43.30;;;;;;;5.56;88.08;97756.30;433365;1261;108316;-39
2024/03/04 06:50:52;;;;;;;87.50;49.80;;;;;;;5.75;88.32;97759.27;433491;1261;99255;-40
2024/03/04 07:00:59;;;;;;;93.20;55.80;;;;;;;5.79;88.47;97768.63;433536;1261;111956;-40
2024/03/04 07:11:05;;;;;;;83.00;46.60;;;;;;;5.85;88.50;97765.04;433460;1261;109385;-40
2024/03/04 07:21:15;;;;;;;80.50;45.90;;;;;;;5.95;88.63;97763.82;433570;1259;98519;-40
2024/03/04 07:31:24;;;;;;;74.80;44.30;;;;;;;6.11;88.55;97766.64;433382;1261;108666;-38
2024/03/04 07:41:31;;;;;;;87.10;51.00;;;;;;;6.28;88.73;97771.67;433633;1259;99339;-40
2024/03/04 07:51:38;;;;;;;86.00;46.30;;;;;;;6.30;88.77;97778.63;433436;1261;111231;-40
2024/03/04 08:01:49;;;;;;;71.80;43.20;;;;;;;6.35;88.98;97779.24;433450;1261;108052;-39
2024/03/04 08:11:55;;;;;;;84.20;44.40;;;;;;;6.58;89.40;97783.17;433482;1261;99312;-41
2024/03/04 08:22:02;;;;;;;86.50;49.50;;;;;;;6.80;89.47;97790.42;433531;1261;108642;-41
2024/03/04 08:32:08;;;;;;;95.80;52.70;;;;;;;6.89;89.29;97790.27;433502;1261;99898;-39
2024/03/04 08:42:14;;;;;;;77.40;44.60;;;;;;;7.02;89.24;97788.80;433575;1262;110996;-40
2024/03/04 08:52:21;;;;;;;79.10;44.30;;;;;;;7.28;89.46;97792.05;433419;1261;110100;-39
2024/03/04 09:02:28;;;;;;;85.80;50.00;;;;;;;7.92;90.16;97787.00;433504;1258;99275;-40
2024/03/04 09:12:35;;;;;;;88.60;47.30;;;;;;;9.09;89.87;97785.38;433408;1261;106565;-40
2024/03/04 09:22:42;;;;;;;83.70;44.00;;;;;;;9.92;88.77;97778.64;433321;1261;98122;-41
2024/03/04 09:32:50;;;;;;;79.40;47.80;;;;;;;10.43;88.14;97779.02;433445;1261;111331;-41
2024/03/04 09:42:59;;;;;;;134.90;53.70;;;;;;;10.70;87.01;97779.70;433420;1262;108150;-41
2024/03/04 09:53:06;;;;;;;66.90;42.60;;;;;;;11.11;85.79;97780.69;433439;1261;99272;-38
2024/03/04 10:03:12;;;;;;;74.70;45.70;;;;;;;11.72;85.41;97775.41;433341;1257;108323;-41
2024/03/04 10:23:26;;;;;;;82.10;46.20;;;;;;;11.84;81.35;97763.02;433507;1259;111384;-40
2024/03/04 10:33:33;;;;;;;65.30;41.50;;;;;;;12.26;82.11;97757.34;433445;1262;108384;-40
2024/03/04 10:43:41;;;;;;;77.20;44.00;;;;;;;12.59;81.08;97753.48;433429;1259;99241;-40
2024/03/04 10:53:47;;;;;;;64.80;39.90;;;;;;;12.78;80.30;97749.31;433583;1262;108559;-41
2024/03/04 11:03:57;;;;;;;63.80;36.50;;;;;;;12.75;78.09;97745.17;433438;1259;98813;-40
2024/03/04 11:14:05;;;;;;;65.80;39.50;;;;;;;12.94;77.01;97736.05;433677;1261;111297;-39
2024/03/04 11:24:13;;;;;;;59.50;37.80;;;;;;;13.19;76.38;97730.20;433614;1261;106551;-41
2024/03/04 11:54:54;;;;;;;60.10;36.80;;;;;;;13.02;74.33;97729.41;433485;1262;98058;-41
2024/03/04 12:05:02;;;;;;;57.30;35.20;;;;;;;12.84;74.97;97723.64;433465;1259;112164;-40
2024/03/04 12:25:16;;;;;;;70.70;41.40;;;;;;;12.69;74.37;97709.73;433618;1263;99221;-40
2024/03/04 12:35:26;;;;;;;64.30;40.80;;;;;;;12.64;74.58;97706.87;433524;1260;108027;-40
2024/03/04 12:45:32;;;;;;;69.20;42.10;;;;;;;12.92;75.12;97699.06;433543;1271;97960;-40
2024/03/04 12:55:41;;;;;;;64.20;42.40;;;;;;;12.87;74.35;97705.23;433432;1261;111227;-40
2024/03/04 13:05:48;;;;;;;63.10;38.80;;;;;;;12.82;73.89;97704.39;433591;1261;108107;-40
2024/03/04 13:15:59;;;;;;;59.10;39.50;;;;;;;12.72;73.92;97703.95;433507;1261;99319;-41
2024/03/04 13:26:05;;;;;;;57.00;37.40;;;;;;;12.46;74.01;97712.48;433659;1261;107842;-41
2024/03/04 13:36:12;;;;;;;58.90;37.70;;;;;;;12.28;73.96;97714.36;433538;1258;99330;-41
2024/03/04 13:46:21;;;;;;;57.10;36.40;;;;;;;12.04;73.50;97711.77;433702;1272;112046;-40
2024/03/04 13:56:28;;;;;;;71.70;41.10;;;;;;;11.76;74.21;97710.91;435899;1262;108339;-40
2024/03/04 14:06:36;;;;;;;57.50;37.90;;;;;;;11.73;74.47;97716.77;434183;1257;98005;-40
2024/03/04 14:26:53;;;;;;;62.40;38.40;;;;;;;11.64;75.54;97716.85;434648;1263;98343;-39
2024/03/04 14:37:00;;;;;;;51.20;34.50;;;;;;;11.67;75.58;97718.08;433951;1261;111215;-39
2024/03/04 14:47:06;;;;;;;58.90;35.30;;;;;;;11.44;76.19;97727.70;433709;1264;107426;-39
2024/03/04 15:07:20;;;;;;;44.00;30.60;;;;;;;11.41;76.70;97729.17;433536;1258;109576;-39
2024/03/04 15:17:27;;;;;;;52.40;33.00;;;;;;;11.41;76.73;97745.43;433546;1262;99342;-40
2024/03/04 15:27:35;;;;;;;54.80;32.30;;;;;;;11.40;76.76;97749.02;433472;1271;112473;-40
2024/03/04 15:47:48;;;;;;;58.40;35.70;;;;;;;11.17;77.15;97751.09;433755;1258;99157;-40
2024/03/04 15:57:55;;;;;;;54.90;32.70;;;;;;;10.90;77.36;97761.11;433411;1257;108026;-39
2024/03/04 16:08:03;;;;;;;58.50;37.20;;;;;;;10.62;78.03;97769.11;433193;1257;530306;-40
2024/03/04 16:18:23;;;;;;;59.00;35.30;;;;;;;10.40;78.44;97770.65;422949;1293;635845;-40
2024/03/04 16:28:30;;;;;;;61.70;35.20;;;;;;;10.20;78.84;97782.73;432941;1260;365049;-39
2024/03/04 16:38:37;;;;;;;68.90;37.80;;;;;;;9.99;79.16;97786.55;434031;1261;107899;-41
2024/03/04 16:58:50;;;;;;;53.80;34.80;;;;;;;9.79;79.88;97797.19;434035;1257;95701;-41
2024/03/04 17:08:57;;;;;;;65.90;41.00;;;;;;;9.76;80.43;97800.73;433980;1260;106089;-41
2024/03/04 17:19:06;;;;;;;72.20;43.50;;;;;;;9.47;81.42;97806.92;433949;1260;108298;-41
2024/03/04 17:29:13;;;;;;;70.00;41.70;;;;;;;9.18;82.22;97816.48;433858;1257;107640;-40
2024/03/04 17:39:28;;;;;;;71.30;43.00;;;;;;;9.03;83.31;97813.60;433918;1270;95676;-40
2024/03/04 17:49:35;;;;;;;70.60;43.50;;;;;;;8.88;84.06;97823.48;433894;1260;106812;-40
2024/03/04 17:59:42;;;;;;;77.30;46.20;;;;;;;8.78;84.45;97837.02;433748;1264;108301;-40
2024/03/04 18:19:57;;;;;;;81.90;49.20;;;;;;;8.48;85.55;97863.08;433842;1270;109269;-41
2024/03/04 18:40:11;;;;;;;87.50;48.60;;;;;;;8.39;86.28;97860.44;433700;1263;96508;-40
2024/03/04 18:50:20;;;;;;;91.80;50.00;;;;;;;8.31;86.81;97857.78;433850;1257;106866;-41
2024/03/04 19:00:31;;;;;;;96.40;53.50;;;;;;;8.10;87.85;97865.08;433767;1257;96130;-40
2024/03/04 19:10:38;;;;;;;95.00;50.90;;;;;;;7.86;88.34;97863.74;433930;1257;108096;-40
2024/03/04 19:20:45;;;;;;;85.00;44.20;;;;;;;7.56;89.07;97873.42;433713;1263;108559;-40
2024/03/04 19:30:52;;;;;;;96.30;46.40;;;;;;;7.29;89.81;97880.33;433873;1257;96114;-40
2024/03/04 19:40:59;;;;;;;77.80;37.20;;;;;;;6.92;91.09;97886.23;433940;1262;108015;-40
2024/03/04 19:51:07;;;;;;;70.90;37.90;;;;;;;6.65;91.83;97880.79;433686;1262;96537;-40
2024/03/04 20:01:15;;;;;;;70.90;36.80;;;;;;;6.51;92.76;97890.21;433866;1263;108094;-41
2024/03/04 20:11:22;;;;;;;87.00;43.20;;;;;;;6.53;92.40;97880.59;433952;1257;106881;-40
2024/03/04 20:21:32;;;;;;;87.90;42.60;;;;;;;6.52;92.45;97890.45;433941;1257;95570;-40
2024/03/04 20:31:40;;;;;;;94.90;45.80;;;;;;;6.41;92.37;97906.60;433869;1258;109260;-40
2024/03/04 20:41:48;;;;;;;86.10;43.50;;;;;;;6.30;92.53;97903.55;433806;1258;96769;-40
2024/03/04 20:51:55;;;;;;;75.70;40.00;;;;;;;6.09;92.97;97899.06;433921;1257;109108;-40
2024/03/04 21:02:02;;;;;;;87.40;41.90;;;;;;;5.99;93.05;97901.52;433823;1259;108340;-40
2024/03/04 21:12:07;;;;;;;75.50;40.20;;;;;;;5.92;93.39;97909.78;433843;1258;95310;-39
2024/03/04 21:22:14;;;;;;;83.20;42.00;;;;;;;5.92;93.45;97910.02;433914;1262;108379;-40
2024/03/04 21:32:21;;;;;;;77.00;39.20;;;;;;;5.89;93.59;97914.50;433838;1262;96127;-40
2024/03/04 21:42:27;;;;;;;71.10;36.00;;;;;;;5.91;93.69;97921.98;433752;1262;109161;-40
2024/03/04 21:52:34;;;;;;;62.00;35.40;;;;;;;5.98;93.45;97918.53;433811;1258;107233;-40
2024/03/04 22:12:47;;;;;;;59.50;34.20;;;;;;;6.02;93.38;97924.73;433922;1260;108897;-39
2024/03/04 22:22:56;;;;;;;63.60;35.40;;;;;;;6.02;93.24;97934.83;433991;1257;95573;-39
2024/03/04 22:33:03;;;;;;;76.40;42.60;;;;;;;6.08;93.29;97943.48;435562;1253;108746;-40
2024/03/04 22:43:11;;;;;;;78.30;40.80;;;;;;;5.97;93.09;97939.80;435543;1251;108085;-41
2024/03/04 22:53:18;;;;;;;85.70;43.10;;;;;;;5.85;93.02;97936.48;435642;1250;96781;-38
2024/03/04 23:03:25;;;;;;;78.20;41.60;;;;;;;5.88;93.09;97945.11;435593;1251;109398;-40
2024/03/04 23:13:33;;;;;;;74.20;39.50;;;;;;;5.99;93.19;97935.39;435481;1250;95859;-40
2024/03/04 23:23:41;;;;;;;78.30;38.50;;;;;;;6.02;92.99;97924.06;435624;1249;112441;-41
2024/03/04 23:33:49;;;;;;;86.80;41.60;;;;;;;5.98;92.88;97922.61;435443;1251;106198;-40
2024/03/04 23:43:56;;;;;;;89.90;41.40;;;;;;;5.85;93.15;97927.77;435622;1251;95263;-40
2024/03/04 23:54:04;;;;;;;59.40;34.70;;;;;;;5.82;93.14;97931.36;435370;1251;108980;-40
